sensor_id;sensor_type;location;lat;lon;timestamp;P1;durP1;ratioP1;P2;durP2;ratioP2
35558;SDS011;21661;50.794;-1.066;2023-04-25T00:01:40;22.60;;;6.18;;
35558;SDS011;21661;50.794;-1.066;2023-04-25T00:04:06;17.88;;;5.72;;
35558;SDS011;21661;50.794;-1.066;2023-04-25T00:06:33;16.27;;;6.30;;
35558;SDS011;21661;50.794;-1.066;2023-04-25T00:09:01;20.45;;;6.28;;
35558;SDS011;21661;50.794;-1.066;2023-04-25T00:11:28;16.95;;;5.72;;
35558;SDS011;21661;50.794;-1.066;2023-04-25T00:13:55;18.05;;;6.22;;
35558;SDS011;21661;50.794;-1.066;2023-04-25T00:16:22;14.98;;;6.05;;
35558;SDS011;21661;50.794;-1.066;2023-04-25T00:18:48;18.40;;;5.43;;
35558;SDS011;21661;50.794;-1.066;2023-04-25T00:21:16;17.30;;;5.32;;
35558;SDS011;21661;50.794;-1.066;2023-04-25T00:23:43;19.05;;;5.50;;
35558;SDS011;21661;50.794;-1.066;2023-04-25T00:26:10;21.67;;;5.82;;
35558;SDS011;21661;50.794;-1.066;2023-04-25T00:28:36;14.65;;;5.00;;
35558;SDS011;21661;50.794;-1.066;2023-04-25T00:31:02;17.98;;;4.78;;
35558;SDS011;21661;50.794;-1.066;2023-04-25T00:33:28;16.25;;;4.75;;
35558;SDS011;21661;50.794;-1.066;2023-04-25T00:35:55;13.93;;;4.97;;
35558;SDS011;21661;50.794;-1.066;2023-04-25T00:38:20;18.55;;;5.43;;
35558;SDS011;21661;50.794;-1.066;2023-04-25T00:40:46;20.85;;;5.07;;
35558;SDS011;21661;50.794;-1.066;2023-04-25T00:43:12;29.05;;;4.68;;
35558;SDS011;21661;50.794;-1.066;2023-04-25T00:45:38;17.35;;;5.70;;
35558;SDS011;21661;50.794;-1.066;2023-04-25T00:48:05;17.48;;;4.50;;
35558;SDS011;21661;50.794;-1.066;2023-04-25T00:50:32;19.58;;;4.47;;
35558;SDS011;21661;50.794;-1.066;2023-04-25T00:52:58;18.77;;;4.47;;
35558;SDS011;21661;50.794;-1.066;2023-04-25T00:55:25;14.80;;;4.40;;
35558;SDS011;21661;50.794;-1.066;2023-04-25T00:57:51;18.90;;;5.47;;
35558;SDS011;21661;50.794;-1.066;2023-04-25T01:00:17;22.65;;;4.55;;
35558;SDS011;21661;50.794;-1.066;2023-04-25T01:02:43;12.88;;;3.55;;
35558;SDS011;21661;50.794;-1.066;2023-04-25T01:05:09;16.70;;;4.40;;
35558;SDS011;21661;50.794;-1.066;2023-04-25T01:07:36;22.75;;;5.88;;
35558;SDS011;21661;50.794;-1.066;2023-04-25T01:10:03;17.05;;;4.85;;
35558;SDS011;21661;50.794;-1.066;2023-04-25T01:12:29;13.93;;;3.97;;
35558;SDS011;21661;50.794;-1.066;2023-04-25T01:14:55;17.40;;;4.07;;
35558;SDS011;21661;50.794;-1.066;2023-04-25T01:17:21;19.45;;;5.75;;
35558;SDS011;21661;50.794;-1.066;2023-04-25T01:19:47;17.83;;;5.25;;
35558;SDS011;21661;50.794;-1.066;2023-04-25T01:22:14;19.48;;;4.35;;
35558;SDS011;21661;50.794;-1.066;2023-04-25T01:24:40;21.85;;;4.72;;
35558;SDS011;21661;50.794;-1.066;2023-04-25T01:27:06;26.25;;;5.00;;
35558;SDS011;21661;50.794;-1.066;2023-04-25T01:29:32;14.15;;;4.13;;
35558;SDS011;21661;50.794;-1.066;2023-04-25T01:31:59;14.63;;;4.00;;
35558;SDS011;21661;50.794;-1.066;2023-04-25T01:34:26;14.52;;;3.78;;
35558;SDS011;21661;50.794;-1.066;2023-04-25T01:36:51;18.27;;;4.32;;
35558;SDS011;21661;50.794;-1.066;2023-04-25T01:39:18;16.95;;;4.70;;
35558;SDS011;21661;50.794;-1.066;2023-04-25T01:41:45;16.05;;;3.97;;
35558;SDS011;21661;50.794;-1.066;2023-04-25T01:44:11;17.40;;;3.78;;
35558;SDS011;21661;50.794;-1.066;2023-04-25T01:46:37;14.90;;;3.88;;
35558;SDS011;21661;50.794;-1.066;2023-04-25T01:49:03;17.33;;;4.03;;
35558;SDS011;21661;50.794;-1.066;2023-04-25T01:51:29;14.45;;;3.88;;
35558;SDS011;21661;50.794;-1.066;2023-04-25T01:53:55;18.13;;;4.25;;
35558;SDS011;21661;50.794;-1.066;2023-04-25T01:56:22;19.38;;;4.45;;
35558;SDS011;21661;50.794;-1.066;2023-04-25T01:58:48;14.05;;;4.30;;
35558;SDS011;21661;50.794;-1.066;2023-04-25T02:01:13;17.23;;;3.97;;
35558;SDS011;21661;50.794;-1.066;2023-04-25T02:03:39;10.50;;;3.42;;
35558;SDS011;21661;50.794;-1.066;2023-04-25T02:06:05;17.92;;;3.80;;
35558;SDS011;21661;50.794;-1.066;2023-04-25T02:08:30;13.73;;;3.63;;
35558;SDS011;21661;50.794;-1.066;2023-04-25T02:10:56;17.13;;;3.67;;
35558;SDS011;21661;50.794;-1.066;2023-04-25T02:13:22;15.98;;;3.38;;
35558;SDS011;21661;50.794;-1.066;2023-04-25T02:15:48;15.90;;;3.50;;
35558;SDS011;21661;50.794;-1.066;2023-04-25T02:18:13;13.90;;;3.10;;
35558;SDS011;21661;50.794;-1.066;2023-04-25T02:20:41;18.02;;;3.33;;
35558;SDS011;21661;50.794;-1.066;2023-04-25T02:23:09;10.13;;;2.60;;
35558;SDS011;21661;50.794;-1.066;2023-04-25T02:25:34;17.08;;;3.00;;
35558;SDS011;21661;50.794;-1.066;2023-04-25T02:28:00;19.65;;;3.00;;
35558;SDS011;21661;50.794;-1.066;2023-04-25T02:30:26;11.18;;;3.58;;
35558;SDS011;21661;50.794;-1.066;2023-04-25T02:32:52;13.23;;;2.92;;
35558;SDS011;21661;50.794;-1.066;2023-04-25T02:35:17;14.77;;;2.78;;
35558;SDS011;21661;50.794;-1.066;2023-04-25T02:37:43;14.93;;;2.90;;
35558;SDS011;21661;50.794;-1.066;2023-04-25T02:40:09;14.80;;;3.00;;
35558;SDS011;21661;50.794;-1.066;2023-04-25T02:42:35;13.85;;;3.03;;
35558;SDS011;21661;50.794;-1.066;2023-04-25T02:45:00;16.58;;;2.85;;
35558;SDS011;21661;50.794;-1.066;2023-04-25T02:47:26;22.73;;;3.35;;
35558;SDS011;21661;50.794;-1.066;2023-04-25T02:49:52;16.25;;;2.67;;
35558;SDS011;21661;50.794;-1.066;2023-04-25T02:52:17;13.73;;;3.10;;
35558;SDS011;21661;50.794;-1.066;2023-04-25T02:54:43;14.95;;;3.30;;
35558;SDS011;21661;50.794;-1.066;2023-04-25T02:57:09;12.95;;;3.50;;
35558;SDS011;21661;50.794;-1.066;2023-04-25T02:59:34;13.98;;;3.30;;
35558;SDS011;21661;50.794;-1.066;2023-04-25T03:02:00;14.35;;;3.33;;
35558;SDS011;21661;50.794;-1.066;2023-04-25T03:04:26;15.40;;;3.35;;
35558;SDS011;21661;50.794;-1.066;2023-04-25T03:06:52;14.23;;;3.55;;
35558;SDS011;21661;50.794;-1.066;2023-04-25T03:09:18;13.75;;;2.78;;
35558;SDS011;21661;50.794;-1.066;2023-04-25T03:11:44;17.70;;;3.40;;
35558;SDS011;21661;50.794;-1.066;2023-04-25T03:14:10;10.25;;;3.05;;
35558;SDS011;21661;50.794;-1.066;2023-04-25T03:16:37;15.07;;;3.05;;
35558;SDS011;21661;50.794;-1.066;2023-04-25T03:19:03;15.50;;;3.05;;
35558;SDS011;21661;50.794;-1.066;2023-04-25T03:21:29;13.02;;;2.90;;
35558;SDS011;21661;50.794;-1.066;2023-04-25T03:24:00;16.13;;;3.10;;
35558;SDS011;21661;50.794;-1.066;2023-04-25T03:26:27;16.52;;;3.00;;
35558;SDS011;21661;50.794;-1.066;2023-04-25T03:28:52;12.20;;;2.50;;
35558;SDS011;21661;50.794;-1.066;2023-04-25T03:31:18;12.98;;;3.40;;
35558;SDS011;21661;50.794;-1.066;2023-04-25T03:33:43;13.95;;;3.60;;
35558;SDS011;21661;50.794;-1.066;2023-04-25T03:36:09;11.82;;;2.75;;
35558;SDS011;21661;50.794;-1.066;2023-04-25T03:38:34;13.35;;;3.05;;
35558;SDS011;21661;50.794;-1.066;2023-04-25T03:41:01;14.18;;;3.10;;
35558;SDS011;21661;50.794;-1.066;2023-04-25T03:43:26;14.10;;;2.70;;
35558;SDS011;21661;50.794;-1.066;2023-04-25T03:45:52;14.30;;;3.38;;
35558;SDS011;21661;50.794;-1.066;2023-04-25T03:48:17;15.88;;;3.85;;
35558;SDS011;21661;50.794;-1.066;2023-04-25T03:50:46;11.13;;;3.05;;
35558;SDS011;21661;50.794;-1.066;2023-04-25T03:53:13;14.23;;;3.47;;
35558;SDS011;21661;50.794;-1.066;2023-04-25T03:55:38;12.70;;;2.83;;
35558;SDS011;21661;50.794;-1.066;2023-04-25T03:58:05;12.60;;;2.72;;
35558;SDS011;21661;50.794;-1.066;2023-04-25T04:00:30;11.25;;;2.95;;
35558;SDS011;21661;50.794;-1.066;2023-04-25T04:02:56;12.55;;;2.97;;
35558;SDS011;21661;50.794;-1.066;2023-04-25T04:05:22;10.57;;;3.15;;
35558;SDS011;21661;50.794;-1.066;2023-04-25T04:07:48;12.65;;;3.67;;
35558;SDS011;21661;50.794;-1.066;2023-04-25T04:10:13;12.68;;;3.20;;
35558;SDS011;21661;50.794;-1.066;2023-04-25T04:12:39;15.85;;;2.97;;
35558;SDS011;21661;50.794;-1.066;2023-04-25T04:15:05;13.63;;;2.47;;
35558;SDS011;21661;50.794;-1.066;2023-04-25T04:17:31;11.60;;;2.85;;
35558;SDS011;21661;50.794;-1.066;2023-04-25T04:19:57;15.23;;;3.05;;
35558;SDS011;21661;50.794;-1.066;2023-04-25T04:22:23;10.90;;;2.67;;
35558;SDS011;21661;50.794;-1.066;2023-04-25T04:24:49;9.48;;;2.63;;
35558;SDS011;21661;50.794;-1.066;2023-04-25T04:27:16;14.77;;;3.00;;
35558;SDS011;21661;50.794;-1.066;2023-04-25T04:29:43;11.35;;;2.50;;
35558;SDS011;21661;50.794;-1.066;2023-04-25T04:32:08;12.02;;;4.35;;
35558;SDS011;21661;50.794;-1.066;2023-04-25T04:34:34;15.70;;;3.35;;
35558;SDS011;21661;50.794;-1.066;2023-04-25T04:37:00;16.25;;;4.30;;
35558;SDS011;21661;50.794;-1.066;2023-04-25T04:39:26;10.38;;;2.67;;
35558;SDS011;21661;50.794;-1.066;2023-04-25T04:41:51;12.63;;;2.72;;
35558;SDS011;21661;50.794;-1.066;2023-04-25T04:44:17;14.70;;;3.17;;
35558;SDS011;21661;50.794;-1.066;2023-04-25T04:46:43;11.80;;;3.25;;
35558;SDS011;21661;50.794;-1.066;2023-04-25T04:49:09;11.48;;;3.15;;
35558;SDS011;21661;50.794;-1.066;2023-04-25T04:51:36;12.52;;;3.17;;
35558;SDS011;21661;50.794;-1.066;2023-04-25T04:54:02;11.45;;;2.92;;
35558;SDS011;21661;50.794;-1.066;2023-04-25T04:56:28;13.98;;;3.45;;
35558;SDS011;21661;50.794;-1.066;2023-04-25T04:58:56;9.48;;;2.72;;
35558;SDS011;21661;50.794;-1.066;2023-04-25T05:01:22;9.18;;;2.80;;
35558;SDS011;21661;50.794;-1.066;2023-04-25T05:03:48;15.38;;;3.15;;
35558;SDS011;21661;50.794;-1.066;2023-04-25T05:06:14;12.32;;;3.20;;
35558;SDS011;21661;50.794;-1.066;2023-04-25T05:08:41;13.77;;;3.17;;
35558;SDS011;21661;50.794;-1.066;2023-04-25T05:11:07;12.48;;;3.25;;
35558;SDS011;21661;50.794;-1.066;2023-04-25T05:13:32;9.52;;;3.22;;
35558;SDS011;21661;50.794;-1.066;2023-04-25T05:15:58;20.05;;;3.63;;
35558;SDS011;21661;50.794;-1.066;2023-04-25T05:18:24;11.70;;;2.78;;
35558;SDS011;21661;50.794;-1.066;2023-04-25T05:20:50;10.98;;;3.15;;
35558;SDS011;21661;50.794;-1.066;2023-04-25T05:23:15;14.55;;;3.33;;
35558;SDS011;21661;50.794;-1.066;2023-04-25T05:25:41;12.40;;;3.03;;
35558;SDS011;21661;50.794;-1.066;2023-04-25T05:28:07;18.90;;;3.05;;
35558;SDS011;21661;50.794;-1.066;2023-04-25T05:30:34;10.60;;;3.08;;
35558;SDS011;21661;50.794;-1.066;2023-04-25T05:33:00;13.82;;;2.97;;
35558;SDS011;21661;50.794;-1.066;2023-04-25T05:35:26;9.80;;;2.78;;
35558;SDS011;21661;50.794;-1.066;2023-04-25T05:37:52;9.23;;;2.97;;
35558;SDS011;21661;50.794;-1.066;2023-04-25T05:40:17;16.70;;;3.10;;
35558;SDS011;21661;50.794;-1.066;2023-04-25T05:42:43;12.85;;;3.13;;
35558;SDS011;21661;50.794;-1.066;2023-04-25T05:45:09;13.43;;;3.17;;
35558;SDS011;21661;50.794;-1.066;2023-04-25T05:47:35;7.50;;;3.03;;
35558;SDS011;21661;50.794;-1.066;2023-04-25T05:50:00;15.20;;;3.45;;
35558;SDS011;21661;50.794;-1.066;2023-04-25T05:52:27;9.75;;;3.00;;
35558;SDS011;21661;50.794;-1.066;2023-04-25T05:54:52;13.23;;;3.35;;
35558;SDS011;21661;50.794;-1.066;2023-04-25T05:57:19;10.60;;;3.33;;
35558;SDS011;21661;50.794;-1.066;2023-04-25T05:59:46;10.40;;;2.90;;
35558;SDS011;21661;50.794;-1.066;2023-04-25T06:02:11;15.50;;;2.95;;
35558;SDS011;21661;50.794;-1.066;2023-04-25T06:04:37;18.90;;;3.60;;
35558;SDS011;21661;50.794;-1.066;2023-04-25T06:07:02;11.95;;;4.40;;
35558;SDS011;21661;50.794;-1.066;2023-04-25T06:09:28;12.50;;;3.13;;
35558;SDS011;21661;50.794;-1.066;2023-04-25T06:11:54;17.10;;;3.28;;
35558;SDS011;21661;50.794;-1.066;2023-04-25T06:14:19;10.23;;;3.20;;
35558;SDS011;21661;50.794;-1.066;2023-04-25T06:16:45;18.23;;;4.68;;
35558;SDS011;21661;50.794;-1.066;2023-04-25T06:19:10;10.10;;;3.00;;
35558;SDS011;21661;50.794;-1.066;2023-04-25T06:21:36;14.40;;;3.60;;
35558;SDS011;21661;50.794;-1.066;2023-04-25T06:24:01;14.52;;;2.70;;
35558;SDS011;21661;50.794;-1.066;2023-04-25T06:26:27;10.15;;;2.75;;
35558;SDS011;21661;50.794;-1.066;2023-04-25T06:28:53;12.45;;;2.70;;
35558;SDS011;21661;50.794;-1.066;2023-04-25T06:31:18;19.25;;;4.13;;
35558;SDS011;21661;50.794;-1.066;2023-04-25T06:33:44;8.75;;;3.03;;
35558;SDS011;21661;50.794;-1.066;2023-04-25T06:36:10;15.13;;;3.10;;
35558;SDS011;21661;50.794;-1.066;2023-04-25T06:38:35;12.27;;;2.88;;
35558;SDS011;21661;50.794;-1.066;2023-04-25T06:41:01;11.73;;;2.92;;
35558;SDS011;21661;50.794;-1.066;2023-04-25T06:43:27;8.88;;;2.65;;
35558;SDS011;21661;50.794;-1.066;2023-04-25T06:45:53;10.32;;;2.50;;
35558;SDS011;21661;50.794;-1.066;2023-04-25T06:48:18;16.50;;;3.15;;
35558;SDS011;21661;50.794;-1.066;2023-04-25T06:50:44;17.80;;;4.03;;
35558;SDS011;21661;50.794;-1.066;2023-04-25T06:53:09;7.80;;;1.92;;
35558;SDS011;21661;50.794;-1.066;2023-04-25T06:55:36;12.77;;;2.45;;
35558;SDS011;21661;50.794;-1.066;2023-04-25T06:58:02;9.65;;;2.50;;
35558;SDS011;21661;50.794;-1.066;2023-04-25T07:00:28;10.68;;;2.50;;
35558;SDS011;21661;50.794;-1.066;2023-04-25T07:02:53;8.32;;;2.10;;
35558;SDS011;21661;50.794;-1.066;2023-04-25T07:05:19;9.52;;;1.88;;
35558;SDS011;21661;50.794;-1.066;2023-04-25T07:07:46;12.68;;;2.20;;
35558;SDS011;21661;50.794;-1.066;2023-04-25T07:10:12;8.52;;;1.95;;
35558;SDS011;21661;50.794;-1.066;2023-04-25T07:12:37;13.77;;;2.10;;
35558;SDS011;21661;50.794;-1.066;2023-04-25T07:15:03;13.70;;;2.88;;
35558;SDS011;21661;50.794;-1.066;2023-04-25T07:17:31;11.93;;;2.40;;
35558;SDS011;21661;50.794;-1.066;2023-04-25T07:19:57;9.25;;;2.00;;
35558;SDS011;21661;50.794;-1.066;2023-04-25T07:22:23;9.63;;;2.60;;
35558;SDS011;21661;50.794;-1.066;2023-04-25T07:24:49;12.35;;;2.10;;
35558;SDS011;21661;50.794;-1.066;2023-04-25T07:27:15;11.10;;;2.08;;
35558;SDS011;21661;50.794;-1.066;2023-04-25T07:29:41;12.45;;;2.00;;
35558;SDS011;21661;50.794;-1.066;2023-04-25T07:32:07;10.32;;;1.90;;
35558;SDS011;21661;50.794;-1.066;2023-04-25T07:34:32;9.95;;;2.05;;
35558;SDS011;21661;50.794;-1.066;2023-04-25T07:37:02;9.02;;;2.00;;
35558;SDS011;21661;50.794;-1.066;2023-04-25T07:39:27;11.38;;;1.90;;
35558;SDS011;21661;50.794;-1.066;2023-04-25T07:41:53;11.57;;;2.08;;
35558;SDS011;21661;50.794;-1.066;2023-04-25T07:44:18;9.13;;;1.80;;
35558;SDS011;21661;50.794;-1.066;2023-04-25T07:46:44;9.65;;;1.67;;
35558;SDS011;21661;50.794;-1.066;2023-04-25T07:49:11;13.45;;;2.30;;
35558;SDS011;21661;50.794;-1.066;2023-04-25T07:51:37;15.27;;;2.80;;
35558;SDS011;21661;50.794;-1.066;2023-04-25T07:54:02;6.30;;;1.65;;
35558;SDS011;21661;50.794;-1.066;2023-04-25T07:56:28;16.63;;;2.17;;
35558;SDS011;21661;50.794;-1.066;2023-04-25T07:58:54;8.35;;;1.92;;
35558;SDS011;21661;50.794;-1.066;2023-04-25T08:01:19;9.25;;;2.10;;
35558;SDS011;21661;50.794;-1.066;2023-04-25T08:03:46;9.70;;;1.73;;
35558;SDS011;21661;50.794;-1.066;2023-04-25T08:06:12;10.80;;;2.22;;
35558;SDS011;21661;50.794;-1.066;2023-04-25T08:08:37;11.13;;;2.50;;
35558;SDS011;21661;50.794;-1.066;2023-04-25T08:11:03;11.45;;;1.63;;
35558;SDS011;21661;50.794;-1.066;2023-04-25T08:13:28;8.02;;;1.77;;
35558;SDS011;21661;50.794;-1.066;2023-04-25T08:15:54;8.55;;;1.88;;
35558;SDS011;21661;50.794;-1.066;2023-04-25T08:18:20;4.95;;;1.60;;
35558;SDS011;21661;50.794;-1.066;2023-04-25T08:20:45;13.10;;;2.20;;
35558;SDS011;21661;50.794;-1.066;2023-04-25T08:23:12;6.63;;;1.90;;
35558;SDS011;21661;50.794;-1.066;2023-04-25T08:25:38;6.53;;;1.95;;
35558;SDS011;21661;50.794;-1.066;2023-04-25T08:28:03;10.23;;;3.38;;
35558;SDS011;21661;50.794;-1.066;2023-04-25T08:30:30;7.35;;;1.80;;
35558;SDS011;21661;50.794;-1.066;2023-04-25T08:32:56;6.43;;;1.67;;
35558;SDS011;21661;50.794;-1.066;2023-04-25T08:35:21;8.07;;;1.77;;
35558;SDS011;21661;50.794;-1.066;2023-04-25T08:37:47;8.05;;;2.05;;
35558;SDS011;21661;50.794;-1.066;2023-04-25T08:40:14;7.63;;;1.70;;
35558;SDS011;21661;50.794;-1.066;2023-04-25T08:42:43;11.07;;;2.25;;
35558;SDS011;21661;50.794;-1.066;2023-04-25T08:45:10;9.68;;;1.77;;
35558;SDS011;21661;50.794;-1.066;2023-04-25T08:47:37;6.25;;;1.45;;
35558;SDS011;21661;50.794;-1.066;2023-04-25T08:50:04;7.72;;;1.98;;
35558;SDS011;21661;50.794;-1.066;2023-04-25T08:52:35;6.90;;;1.58;;
35558;SDS011;21661;50.794;-1.066;2023-04-25T08:55:03;8.55;;;1.85;;
35558;SDS011;21661;50.794;-1.066;2023-04-25T08:57:31;13.68;;;2.33;;
35558;SDS011;21661;50.794;-1.066;2023-04-25T08:59:59;9.05;;;2.13;;
35558;SDS011;21661;50.794;-1.066;2023-04-25T09:02:26;11.50;;;2.00;;
35558;SDS011;21661;50.794;-1.066;2023-04-25T09:04:53;7.70;;;2.15;;
35558;SDS011;21661;50.794;-1.066;2023-04-25T09:07:19;11.63;;;2.20;;
35558;SDS011;21661;50.794;-1.066;2023-04-25T09:09:46;5.43;;;1.80;;
35558;SDS011;21661;50.794;-1.066;2023-04-25T09:12:12;5.97;;;1.52;;
35558;SDS011;21661;50.794;-1.066;2023-04-25T09:14:38;10.15;;;2.08;;
35558;SDS011;21661;50.794;-1.066;2023-04-25T09:17:04;8.63;;;1.80;;
35558;SDS011;21661;50.794;-1.066;2023-04-25T09:19:33;8.50;;;1.95;;
35558;SDS011;21661;50.794;-1.066;2023-04-25T09:22:01;7.03;;;1.70;;
35558;SDS011;21661;50.794;-1.066;2023-04-25T09:24:35;8.95;;;1.58;;
35558;SDS011;21661;50.794;-1.066;2023-04-25T09:27:03;5.57;;;1.40;;
35558;SDS011;21661;50.794;-1.066;2023-04-25T09:29:33;9.55;;;1.50;;
35558;SDS011;21661;50.794;-1.066;2023-04-25T09:34:46;5.78;;;1.27;;
35558;SDS011;21661;50.794;-1.066;2023-04-25T09:37:16;9.50;;;1.42;;
35558;SDS011;21661;50.794;-1.066;2023-04-25T09:39:51;8.38;;;1.70;;
35558;SDS011;21661;50.794;-1.066;2023-04-25T09:42:21;8.05;;;1.30;;
35558;SDS011;21661;50.794;-1.066;2023-04-25T09:44:49;5.47;;;1.38;;
35558;SDS011;21661;50.794;-1.066;2023-04-25T09:47:17;3.47;;;1.20;;
35558;SDS011;21661;50.794;-1.066;2023-04-25T09:49:43;7.85;;;1.45;;
35558;SDS011;21661;50.794;-1.066;2023-04-25T09:52:12;6.60;;;1.40;;
35558;SDS011;21661;50.794;-1.066;2023-04-25T09:54:40;6.80;;;1.65;;
35558;SDS011;21661;50.794;-1.066;2023-04-25T09:57:13;6.63;;;1.30;;
35558;SDS011;21661;50.794;-1.066;2023-04-25T09:59:42;3.60;;;1.00;;
35558;SDS011;21661;50.794;-1.066;2023-04-25T10:02:13;8.32;;;1.30;;
35558;SDS011;21661;50.794;-1.066;2023-04-25T10:04:40;8.80;;;1.17;;
35558;SDS011;21661;50.794;-1.066;2023-04-25T10:07:07;7.95;;;1.80;;
35558;SDS011;21661;50.794;-1.066;2023-04-25T10:09:33;7.43;;;1.50;;
35558;SDS011;21661;50.794;-1.066;2023-04-25T10:12:02;5.30;;;1.25;;
35558;SDS011;21661;50.794;-1.066;2023-04-25T10:14:30;5.72;;;1.70;;
35558;SDS011;21661;50.794;-1.066;2023-04-25T10:16:57;6.80;;;1.52;;
35558;SDS011;21661;50.794;-1.066;2023-04-25T10:19:23;4.05;;;1.30;;
35558;SDS011;21661;50.794;-1.066;2023-04-25T10:21:55;5.20;;;1.30;;
35558;SDS011;21661;50.794;-1.066;2023-04-25T10:24:31;3.83;;;1.30;;
35558;SDS011;21661;50.794;-1.066;2023-04-25T10:26:57;4.28;;;0.90;;
35558;SDS011;21661;50.794;-1.066;2023-04-25T10:29:26;6.53;;;1.27;;
35558;SDS011;21661;50.794;-1.066;2023-04-25T10:31:52;4.45;;;1.25;;
35558;SDS011;21661;50.794;-1.066;2023-04-25T10:34:18;5.18;;;1.23;;
35558;SDS011;21661;50.794;-1.066;2023-04-25T10:36:51;4.40;;;1.00;;
35558;SDS011;21661;50.794;-1.066;2023-04-25T10:39:24;3.22;;;1.13;;
35558;SDS011;21661;50.794;-1.066;2023-04-25T10:41:56;6.07;;;1.27;;
35558;SDS011;21661;50.794;-1.066;2023-04-25T10:44:22;4.70;;;1.90;;
35558;SDS011;21661;50.794;-1.066;2023-04-25T10:46:51;3.72;;;1.25;;
35558;SDS011;21661;50.794;-1.066;2023-04-25T10:49:33;5.50;;;1.30;;
35558;SDS011;21661;50.794;-1.066;2023-04-25T10:55:04;3.30;;;1.30;;
35558;SDS011;21661;50.794;-1.066;2023-04-25T11:02:43;3.30;;;1.05;;
35558;SDS011;21661;50.794;-1.066;2023-04-25T11:05:22;4.72;;;1.45;;
35558;SDS011;21661;50.794;-1.066;2023-04-25T11:07:55;4.13;;;0.90;;
35558;SDS011;21661;50.794;-1.066;2023-04-25T11:10:28;4.57;;;1.10;;
35558;SDS011;21661;50.794;-1.066;2023-04-25T11:12:55;4.57;;;1.27;;
35558;SDS011;21661;50.794;-1.066;2023-04-25T11:15:21;6.20;;;1.75;;
35558;SDS011;21661;50.794;-1.066;2023-04-25T11:17:47;4.68;;;1.45;;
35558;SDS011;21661;50.794;-1.066;2023-04-25T11:20:13;11.60;;;1.38;;
35558;SDS011;21661;50.794;-1.066;2023-04-25T11:22:40;6.28;;;1.50;;
35558;SDS011;21661;50.794;-1.066;2023-04-25T11:25:09;4.07;;;1.35;;
35558;SDS011;21661;50.794;-1.066;2023-04-25T11:28:20;4.05;;;1.30;;
35558;SDS011;21661;50.794;-1.066;2023-04-25T11:30:26;6.78;;;1.90;;
35558;SDS011;21661;50.794;-1.066;2023-04-25T11:32:52;3.55;;;1.70;;
35558;SDS011;21661;50.794;-1.066;2023-04-25T11:35:18;3.95;;;1.60;;
35558;SDS011;21661;50.794;-1.066;2023-04-25T11:37:47;6.07;;;2.13;;
35558;SDS011;21661;50.794;-1.066;2023-04-25T11:40:13;5.40;;;1.50;;
35558;SDS011;21661;50.794;-1.066;2023-04-25T11:42:44;4.75;;;1.60;;
35558;SDS011;21661;50.794;-1.066;2023-04-25T11:47:36;4.32;;;1.60;;
35558;SDS011;21661;50.794;-1.066;2023-04-25T11:50:03;5.28;;;1.70;;
35558;SDS011;21661;50.794;-1.066;2023-04-25T11:52:40;5.43;;;1.83;;
35558;SDS011;21661;50.794;-1.066;2023-04-25T11:55:08;7.60;;;2.00;;
35558;SDS011;21661;50.794;-1.066;2023-04-25T11:57:45;5.15;;;1.90;;
35558;SDS011;21661;50.794;-1.066;2023-04-25T12:00:20;9.90;;;1.98;;
35558;SDS011;21661;50.794;-1.066;2023-04-25T12:02:51;6.72;;;1.83;;
35558;SDS011;21661;50.794;-1.066;2023-04-25T12:05:18;4.95;;;1.80;;
35558;SDS011;21661;50.794;-1.066;2023-04-25T12:07:45;9.73;;;2.47;;
35558;SDS011;21661;50.794;-1.066;2023-04-25T12:10:12;117.53;;;16.67;;
35558;SDS011;21661;50.794;-1.066;2023-04-25T12:12:43;9.70;;;2.47;;
35558;SDS011;21661;50.794;-1.066;2023-04-25T12:15:17;5.85;;;2.50;;
35558;SDS011;21661;50.794;-1.066;2023-04-25T12:17:46;8.07;;;2.03;;
35558;SDS011;21661;50.794;-1.066;2023-04-25T12:20:14;7.65;;;2.05;;
35558;SDS011;21661;50.794;-1.066;2023-04-25T12:22:42;7.18;;;1.73;;
35558;SDS011;21661;50.794;-1.066;2023-04-25T12:25:09;6.15;;;2.13;;
35558;SDS011;21661;50.794;-1.066;2023-04-25T12:27:37;4.75;;;1.90;;
35558;SDS011;21661;50.794;-1.066;2023-04-25T12:30:02;5.45;;;2.03;;
35558;SDS011;21661;50.794;-1.066;2023-04-25T12:32:28;5.22;;;1.80;;
35558;SDS011;21661;50.794;-1.066;2023-04-25T12:34:54;7.63;;;1.90;;
35558;SDS011;21661;50.794;-1.066;2023-04-25T12:37:20;7.15;;;1.75;;
35558;SDS011;21661;50.794;-1.066;2023-04-25T12:39:46;4.85;;;1.65;;
35558;SDS011;21661;50.794;-1.066;2023-04-25T12:42:11;6.70;;;1.75;;
35558;SDS011;21661;50.794;-1.066;2023-04-25T12:44:37;6.68;;;1.88;;
35558;SDS011;21661;50.794;-1.066;2023-04-25T12:47:03;11.40;;;2.75;;
35558;SDS011;21661;50.794;-1.066;2023-04-25T12:49:30;9.98;;;3.22;;
35558;SDS011;21661;50.794;-1.066;2023-04-25T12:51:56;6.65;;;1.80;;
35558;SDS011;21661;50.794;-1.066;2023-04-25T12:54:22;5.75;;;1.70;;
35558;SDS011;21661;50.794;-1.066;2023-04-25T12:56:47;9.60;;;2.10;;
35558;SDS011;21661;50.794;-1.066;2023-04-25T12:59:13;7.97;;;2.20;;
35558;SDS011;21661;50.794;-1.066;2023-04-25T13:01:39;9.70;;;1.90;;
35558;SDS011;21661;50.794;-1.066;2023-04-25T13:04:04;8.40;;;2.00;;
35558;SDS011;21661;50.794;-1.066;2023-04-25T13:06:30;9.50;;;2.50;;
35558;SDS011;21661;50.794;-1.066;2023-04-25T13:08:56;8.00;;;4.15;;
35558;SDS011;21661;50.794;-1.066;2023-04-25T13:11:21;9.38;;;3.30;;
35558;SDS011;21661;50.794;-1.066;2023-04-25T13:13:47;5.90;;;2.08;;
35558;SDS011;21661;50.794;-1.066;2023-04-25T13:16:12;6.95;;;2.08;;
35558;SDS011;21661;50.794;-1.066;2023-04-25T13:18:41;6.07;;;2.10;;
35558;SDS011;21661;50.794;-1.066;2023-04-25T13:21:08;5.18;;;2.13;;
35558;SDS011;21661;50.794;-1.066;2023-04-25T13:23:36;7.78;;;2.33;;
35558;SDS011;21661;50.794;-1.066;2023-04-25T13:26:03;8.13;;;2.17;;
35558;SDS011;21661;50.794;-1.066;2023-04-25T13:28:29;10.98;;;2.53;;
35558;SDS011;21661;50.794;-1.066;2023-04-25T13:30:54;12.82;;;2.97;;
35558;SDS011;21661;50.794;-1.066;2023-04-25T13:33:20;11.45;;;3.10;;
35558;SDS011;21661;50.794;-1.066;2023-04-25T13:35:46;5.63;;;2.03;;
35558;SDS011;21661;50.794;-1.066;2023-04-25T13:38:22;8.60;;;2.00;;
35558;SDS011;21661;50.794;-1.066;2023-04-25T13:40:49;9.02;;;2.15;;
35558;SDS011;21661;50.794;-1.066;2023-04-25T13:43:17;6.20;;;1.90;;
35558;SDS011;21661;50.794;-1.066;2023-04-25T13:45:43;6.13;;;1.90;;
35558;SDS011;21661;50.794;-1.066;2023-04-25T13:48:08;7.70;;;2.42;;
35558;SDS011;21661;50.794;-1.066;2023-04-25T13:50:34;8.00;;;1.92;;
35558;SDS011;21661;50.794;-1.066;2023-04-25T13:53:00;5.97;;;1.52;;
35558;SDS011;21661;50.794;-1.066;2023-04-25T13:55:26;11.68;;;3.38;;
35558;SDS011;21661;50.794;-1.066;2023-04-25T13:57:51;6.72;;;1.98;;
35558;SDS011;21661;50.794;-1.066;2023-04-25T14:00:17;9.70;;;2.13;;
35558;SDS011;21661;50.794;-1.066;2023-04-25T14:02:43;10.00;;;2.47;;
35558;SDS011;21661;50.794;-1.066;2023-04-25T14:05:08;8.27;;;2.58;;
35558;SDS011;21661;50.794;-1.066;2023-04-25T14:07:34;10.93;;;2.80;;
35558;SDS011;21661;50.794;-1.066;2023-04-25T14:10:00;9.57;;;2.28;;
35558;SDS011;21661;50.794;-1.066;2023-04-25T14:12:26;6.75;;;1.88;;
35558;SDS011;21661;50.794;-1.066;2023-04-25T14:14:52;13.13;;;2.10;;
35558;SDS011;21661;50.794;-1.066;2023-04-25T14:17:18;7.90;;;1.83;;
35558;SDS011;21661;50.794;-1.066;2023-04-25T14:19:46;9.15;;;2.15;;
35558;SDS011;21661;50.794;-1.066;2023-04-25T14:22:13;8.10;;;2.05;;
35558;SDS011;21661;50.794;-1.066;2023-04-25T14:24:40;7.50;;;1.55;;
35558;SDS011;21661;50.794;-1.066;2023-04-25T14:27:06;6.97;;;1.98;;
35558;SDS011;21661;50.794;-1.066;2023-04-25T14:29:31;9.00;;;2.55;;
35558;SDS011;21661;50.794;-1.066;2023-04-25T14:31:57;7.15;;;1.95;;
35558;SDS011;21661;50.794;-1.066;2023-04-25T14:34:24;7.88;;;1.98;;
35558;SDS011;21661;50.794;-1.066;2023-04-25T14:36:50;8.65;;;1.70;;
35558;SDS011;21661;50.794;-1.066;2023-04-25T14:39:16;5.43;;;2.03;;